メインページ
METAR-TAF:

METAR-TAF

空港 :

ラルナカ国際空港

ラルナカ, キプロス

緯度: 34-53N, 経度: 033-38E, 海抜: 2m

現時点の気象観測

当レポートは34分前の01:30(UTC)に作成
西の風 5kt
気温 20°C
湿度 88%
気圧 1015 hPa
視程10km以上
1,500メートル以下は雲なし、積乱雲なし

METAR: LCLK 160130Z 28005KT CAVOK 20/18 Q1015 NOSIG

時間: 05:04 (02:04 UTC)

予報

当レポートは2時間34分前の23:30(UTC)に作成
予報は16日の 00時(UTC)から 16日の 24時(UTC)まで有効
北西の風 5kt
視程10km以上
高度2000ftの雲はほとんどない
16日の 09時(UTC)から 16日の 12時(UTC)まで徐々に
の風 11kt
16日の 15時(UTC)から 16日の 18時(UTC)まで徐々に
西/北西の風 5kt

TAF: LCLK 152330Z 1600/1624 31005KT 9999 FEW020 BECMG 1609/1612 18011KT BECMG 1615/1618 30005KT

4,000以上の空港の気象観測と天気予報(METAR報とTAF報)

利用可能な観測所は地図上に黄色い丸と赤い丸で示す。

丸の上にカーソルを重ねると観測所名を参照できる。

次にクリックすると気象観測と天気予報を参照できる。

マップの切り替え:黒色「×」印の緑ボタンをクリックして拡大、「-」印の緑ボタンをクリックして縮小、緑色の三角印をクリックして隣りの地図に切り替え


METAR-TAF: